sensor_id;sensor_type;location;lat;lon;timestamp;temperature;humidity
17986;DHT22;9118;48.122;11.546;2022-10-16T00:01:06;13.60;99.90
17986;DHT22;9118;48.122;11.546;2022-10-16T00:03:33;13.50;99.90
17986;DHT22;9118;48.122;11.546;2022-10-16T00:06:01;13.50;99.90
17986;DHT22;9118;48.122;11.546;2022-10-16T00:08:30;13.50;99.90
17986;DHT22;9118;48.122;11.546;2022-10-16T00:11:02;13.50;99.90
17986;DHT22;9118;48.122;11.546;2022-10-16T00:13:29;13.50;99.90
17986;DHT22;9118;48.122;11.546;2022-10-16T00:15:57;13.50;99.90
17986;DHT22;9118;48.122;11.546;2022-10-16T00:18:25;13.50;99.90
17986;DHT22;9118;48.122;11.546;2022-10-16T00:20:53;13.40;99.90
17986;DHT22;9118;48.122;11.546;2022-10-16T00:23:20;13.40;99.90
17986;DHT22;9118;48.122;11.546;2022-10-16T00:25:56;13.10;99.90
17986;DHT22;9118;48.122;11.546;2022-10-16T00:28:24;13.40;99.90
17986;DHT22;9118;48.122;11.546;2022-10-16T00:30:51;13.30;99.90
17986;DHT22;9118;48.122;11.546;2022-10-16T00:33:19;13.30;99.90
17986;DHT22;9118;48.122;11.546;2022-10-16T00:35:46;13.30;99.90
17986;DHT22;9118;48.122;11.546;2022-10-16T00:38:13;13.30;99.90
17986;DHT22;9118;48.122;11.546;2022-10-16T00:40:40;13.20;99.90
17986;DHT22;9118;48.122;11.546;2022-10-16T00:43:12;13.40;99.90
17986;DHT22;9118;48.122;11.546;2022-10-16T00:45:41;13.20;99.90
17986;DHT22;9118;48.122;11.546;2022-10-16T00:48:11;13.20;99.90
17986;DHT22;9118;48.122;11.546;2022-10-16T00:50:40;13.30;99.90
17986;DHT22;9118;48.122;11.546;2022-10-16T00:53:10;13.30;99.90
17986;DHT22;9118;48.122;11.546;2022-10-16T00:55:37;13.20;99.90
17986;DHT22;9118;48.122;11.546;2022-10-16T00:58:04;13.50;99.90
17986;DHT22;9118;48.122;11.546;2022-10-16T01:00:34;13.20;99.90
17986;DHT22;9118;48.122;11.546;2022-10-16T01:03:02;13.20;99.90
17986;DHT22;9118;48.122;11.546;2022-10-16T01:05:33;13.20;99.90
17986;DHT22;9118;48.122;11.546;2022-10-16T01:08:07;13.20;99.90
17986;DHT22;9118;48.122;11.546;2022-10-16T01:10:38;13.20;99.90
17986;DHT22;9118;48.122;11.546;2022-10-16T01:13:07;13.20;99.90
17986;DHT22;9118;48.122;11.546;2022-10-16T01:15:39;13.20;99.90
17986;DHT22;9118;48.122;11.546;2022-10-16T01:18:11;13.30;99.90
17986;DHT22;9118;48.122;11.546;2022-10-16T01:20:45;13.20;99.90
17986;DHT22;9118;48.122;11.546;2022-10-16T01:23:29;13.10;99.90
17986;DHT22;9118;48.122;11.546;2022-10-16T01:26:20;13.20;99.90
17986;DHT22;9118;48.122;11.546;2022-10-16T01:28:55;13.10;99.90
17986;DHT22;9118;48.122;11.546;2022-10-16T01:31:26;13.20;99.90
17986;DHT22;9118;48.122;11.546;2022-10-16T01:33:59;13.20;99.90
17986;DHT22;9118;48.122;11.546;2022-10-16T01:36:31;13.20;99.90
17986;DHT22;9118;48.122;11.546;2022-10-16T01:39:02;13.20;99.90
17986;DHT22;9118;48.122;11.546;2022-10-16T01:41:33;13.10;99.90
17986;DHT22;9118;48.122;11.546;2022-10-16T01:44:05;13.10;99.90
17986;DHT22;9118;48.122;11.546;2022-10-16T01:46:36;13.10;99.90
17986;DHT22;9118;48.122;11.546;2022-10-16T01:49:05;13.10;99.90
17986;DHT22;9118;48.122;11.546;2022-10-16T01:51:34;13.60;99.90
17986;DHT22;9118;48.122;11.546;2022-10-16T01:54:02;13.10;99.90
17986;DHT22;9118;48.122;11.546;2022-10-16T01:56:31;13.10;99.90
17986;DHT22;9118;48.122;11.546;2022-10-16T01:59:04;13.10;99.90
17986;DHT22;9118;48.122;11.546;2022-10-16T02:01:34;13.10;99.90
17986;DHT22;9118;48.122;11.546;2022-10-16T02:04:12;13.10;99.90
17986;DHT22;9118;48.122;11.546;2022-10-16T02:06:40;13.20;99.90
17986;DHT22;9118;48.122;11.546;2022-10-16T02:09:07;13.10;99.90
17986;DHT22;9118;48.122;11.546;2022-10-16T02:11:34;13.10;99.90
17986;DHT22;9118;48.122;11.546;2022-10-16T02:14:05;13.10;99.90
17986;DHT22;9118;48.122;11.546;2022-10-16T02:16:33;13.20;99.90
17986;DHT22;9118;48.122;11.546;2022-10-16T02:19:01;12.90;99.90
17986;DHT22;9118;48.122;11.546;2022-10-16T02:21:32;13.20;99.90
17986;DHT22;9118;48.122;11.546;2022-10-16T02:24:04;13.20;99.90
17986;DHT22;9118;48.122;11.546;2022-10-16T02:26:36;13.30;99.90
17986;DHT22;9118;48.122;11.546;2022-10-16T02:29:13;13.20;99.90
17986;DHT22;9118;48.122;11.546;2022-10-16T02:31:45;13.20;99.90
17986;DHT22;9118;48.122;11.546;2022-10-16T02:34:14;13.10;99.90
17986;DHT22;9118;48.122;11.546;2022-10-16T02:36:43;13.10;99.90
17986;DHT22;9118;48.122;11.546;2022-10-16T02:39:11;13.10;99.90
17986;DHT22;9118;48.122;11.546;2022-10-16T02:41:38;13.10;99.90
17986;DHT22;9118;48.122;11.546;2022-10-16T02:44:05;13.10;99.90
17986;DHT22;9118;48.122;11.546;2022-10-16T02:46:34;13.30;99.90
17986;DHT22;9118;48.122;11.546;2022-10-16T02:49:01;13.00;99.90
17986;DHT22;9118;48.122;11.546;2022-10-16T02:51:28;13.00;99.90
17986;DHT22;9118;48.122;11.546;2022-10-16T02:53:55;13.00;99.90
17986;DHT22;9118;48.122;11.546;2022-10-16T02:56:22;13.00;99.90
17986;DHT22;9118;48.122;11.546;2022-10-16T02:58:49;12.90;99.90
17986;DHT22;9118;48.122;11.546;2022-10-16T03:01:16;13.00;99.90
17986;DHT22;9118;48.122;11.546;2022-10-16T03:03:44;12.90;99.90
17986;DHT22;9118;48.122;11.546;2022-10-16T03:06:11;12.80;99.90
17986;DHT22;9118;48.122;11.546;2022-10-16T03:08:38;13.20;99.90
17986;DHT22;9118;48.122;11.546;2022-10-16T03:11:05;13.10;99.90
17986;DHT22;9118;48.122;11.546;2022-10-16T03:13:32;12.80;99.90
17986;DHT22;9118;48.122;11.546;2022-10-16T03:16:00;12.80;99.90
17986;DHT22;9118;48.122;11.546;2022-10-16T03:18:27;12.80;99.90
17986;DHT22;9118;48.122;11.546;2022-10-16T03:20:55;12.70;99.90
17986;DHT22;9118;48.122;11.546;2022-10-16T03:23:22;12.80;99.90
17986;DHT22;9118;48.122;11.546;2022-10-16T03:25:49;12.80;99.90
17986;DHT22;9118;48.122;11.546;2022-10-16T03:28:16;12.80;99.90
17986;DHT22;9118;48.122;11.546;2022-10-16T03:30:43;12.80;99.90
17986;DHT22;9118;48.122;11.546;2022-10-16T03:33:10;12.80;99.90
17986;DHT22;9118;48.122;11.546;2022-10-16T03:35:37;12.80;99.90
17986;DHT22;9118;48.122;11.546;2022-10-16T03:38:06;12.90;99.90
17986;DHT22;9118;48.122;11.546;2022-10-16T03:40:33;12.90;99.90
17986;DHT22;9118;48.122;11.546;2022-10-16T03:42:59;13.00;99.90
17986;DHT22;9118;48.122;11.546;2022-10-16T03:45:26;13.10;99.90
17986;DHT22;9118;48.122;11.546;2022-10-16T03:47:53;13.00;99.90
17986;DHT22;9118;48.122;11.546;2022-10-16T03:50:20;13.00;99.90
17986;DHT22;9118;48.122;11.546;2022-10-16T03:52:47;13.00;99.90
17986;DHT22;9118;48.122;11.546;2022-10-16T03:55:16;13.20;99.90
17986;DHT22;9118;48.122;11.546;2022-10-16T03:57:43;13.20;99.90
17986;DHT22;9118;48.122;11.546;2022-10-16T04:00:12;13.20;99.90
17986;DHT22;9118;48.122;11.546;2022-10-16T04:02:39;13.30;99.90
17986;DHT22;9118;48.122;11.546;2022-10-16T04:05:07;13.30;99.90
17986;DHT22;9118;48.122;11.546;2022-10-16T04:07:34;13.30;99.90
17986;DHT22;9118;48.122;11.546;2022-10-16T04:10:01;13.30;99.90
17986;DHT22;9118;48.122;11.546;2022-10-16T04:12:30;13.40;99.90
17986;DHT22;9118;48.122;11.546;2022-10-16T04:14:57;13.40;99.90
17986;DHT22;9118;48.122;11.546;2022-10-16T04:17:24;13.40;99.90
17986;DHT22;9118;48.122;11.546;2022-10-16T04:19:51;13.40;99.90
17986;DHT22;9118;48.122;11.546;2022-10-16T04:22:18;13.40;99.90
17986;DHT22;9118;48.122;11.546;2022-10-16T04:24:45;13.30;99.90
17986;DHT22;9118;48.122;11.546;2022-10-16T04:27:12;14.00;99.90
17986;DHT22;9118;48.122;11.546;2022-10-16T04:29:41;13.40;99.90
17986;DHT22;9118;48.122;11.546;2022-10-16T04:32:09;13.50;99.90
17986;DHT22;9118;48.122;11.546;2022-10-16T04:34:36;13.20;99.90
17986;DHT22;9118;48.122;11.546;2022-10-16T04:37:03;13.40;99.90
17986;DHT22;9118;48.122;11.546;2022-10-16T04:39:30;13.50;99.90
17986;DHT22;9118;48.122;11.546;2022-10-16T04:41:57;13.70;99.90
17986;DHT22;9118;48.122;11.546;2022-10-16T04:44:24;13.20;99.90
17986;DHT22;9118;48.122;11.546;2022-10-16T04:46:52;13.50;99.90
17986;DHT22;9118;48.122;11.546;2022-10-16T04:49:20;13.50;99.90
17986;DHT22;9118;48.122;11.546;2022-10-16T04:51:47;13.50;99.90
17986;DHT22;9118;48.122;11.546;2022-10-16T04:54:14;13.50;99.90
17986;DHT22;9118;48.122;11.546;2022-10-16T04:56:41;13.50;99.90
17986;DHT22;9118;48.122;11.546;2022-10-16T04:59:12;13.50;99.90
17986;DHT22;9118;48.122;11.546;2022-10-16T05:01:40;13.50;99.90
17986;DHT22;9118;48.122;11.546;2022-10-16T05:04:09;13.50;99.90
17986;DHT22;9118;48.122;11.546;2022-10-16T05:06:36;13.50;99.90
17986;DHT22;9118;48.122;11.546;2022-10-16T05:09:04;13.60;99.90
17986;DHT22;9118;48.122;11.546;2022-10-16T05:11:31;13.60;99.90
17986;DHT22;9118;48.122;11.546;2022-10-16T05:13:58;13.60;99.90
17986;DHT22;9118;48.122;11.546;2022-10-16T05:16:25;13.60;99.90
17986;DHT22;9118;48.122;11.546;2022-10-16T05:18:52;13.60;99.90
17986;DHT22;9118;48.122;11.546;2022-10-16T05:21:21;13.70;99.90
17986;DHT22;9118;48.122;11.546;2022-10-16T05:23:48;13.60;99.90
17986;DHT22;9118;48.122;11.546;2022-10-16T05:26:15;13.90;99.90
17986;DHT22;9118;48.122;11.546;2022-10-16T05:28:42;13.60;99.90
17986;DHT22;9118;48.122;11.546;2022-10-16T05:31:09;13.60;99.90
17986;DHT22;9118;48.122;11.546;2022-10-16T05:33:36;13.60;99.90
17986;DHT22;9118;48.122;11.546;2022-10-16T05:36:04;13.60;99.90
17986;DHT22;9118;48.122;11.546;2022-10-16T05:38:37;13.60;99.90
17986;DHT22;9118;48.122;11.546;2022-10-16T05:41:04;13.60;99.90
17986;DHT22;9118;48.122;11.546;2022-10-16T05:43:32;13.80;99.90
17986;DHT22;9118;48.122;11.546;2022-10-16T05:46:00;13.60;99.90
17986;DHT22;9118;48.122;11.546;2022-10-16T05:48:27;13.60;99.90
17986;DHT22;9118;48.122;11.546;2022-10-16T05:50:58;13.70;99.90
17986;DHT22;9118;48.122;11.546;2022-10-16T05:53:27;13.60;99.90
17986;DHT22;9118;48.122;11.546;2022-10-16T05:55:56;13.60;99.90
17986;DHT22;9118;48.122;11.546;2022-10-16T05:58:24;13.50;99.90
17986;DHT22;9118;48.122;11.546;2022-10-16T06:00:55;13.80;99.90
17986;DHT22;9118;48.122;11.546;2022-10-16T06:03:22;13.50;99.90
17986;DHT22;9118;48.122;11.546;2022-10-16T06:05:49;13.50;99.90
17986;DHT22;9118;48.122;11.546;2022-10-16T06:08:16;13.50;99.90
17986;DHT22;9118;48.122;11.546;2022-10-16T06:10:46;13.40;99.90
17986;DHT22;9118;48.122;11.546;2022-10-16T06:13:15;13.40;99.90
17986;DHT22;9118;48.122;11.546;2022-10-16T06:15:43;13.40;99.90
17986;DHT22;9118;48.122;11.546;2022-10-16T06:18:10;13.30;99.90
17986;DHT22;9118;48.122;11.546;2022-10-16T06:20:37;13.40;99.90
17986;DHT22;9118;48.122;11.546;2022-10-16T06:23:04;13.50;99.90
17986;DHT22;9118;48.122;11.546;2022-10-16T06:25:32;13.40;99.90
17986;DHT22;9118;48.122;11.546;2022-10-16T06:27:59;13.50;99.90
17986;DHT22;9118;48.122;11.546;2022-10-16T06:30:27;13.70;99.90
17986;DHT22;9118;48.122;11.546;2022-10-16T06:32:55;13.40;99.90
17986;DHT22;9118;48.122;11.546;2022-10-16T06:35:22;13.30;99.90
17986;DHT22;9118;48.122;11.546;2022-10-16T06:37:52;12.60;99.90
17986;DHT22;9118;48.122;11.546;2022-10-16T06:40:23;13.40;99.90
17986;DHT22;9118;48.122;11.546;2022-10-16T06:42:58;12.60;99.90
17986;DHT22;9118;48.122;11.546;2022-10-16T06:45:28;14.40;99.90
17986;DHT22;9118;48.122;11.546;2022-10-16T06:47:54;13.50;99.90
17986;DHT22;9118;48.122;11.546;2022-10-16T06:50:21;12.70;99.90
17986;DHT22;9118;48.122;11.546;2022-10-16T06:52:49;13.30;99.90
17986;DHT22;9118;48.122;11.546;2022-10-16T06:55:18;13.40;99.90
17986;DHT22;9118;48.122;11.546;2022-10-16T06:57:47;13.30;99.90
17986;DHT22;9118;48.122;11.546;2022-10-16T07:00:14;13.40;99.90
17986;DHT22;9118;48.122;11.546;2022-10-16T07:02:42;13.50;99.90
17986;DHT22;9118;48.122;11.546;2022-10-16T07:05:09;13.40;99.90
17986;DHT22;9118;48.122;11.546;2022-10-16T07:07:36;12.50;99.90
17986;DHT22;9118;48.122;11.546;2022-10-16T07:10:04;13.40;99.90
17986;DHT22;9118;48.122;11.546;2022-10-16T07:12:31;13.40;99.90
17986;DHT22;9118;48.122;11.546;2022-10-16T07:14:58;13.50;99.90
17986;DHT22;9118;48.122;11.546;2022-10-16T07:17:25;13.50;99.90
17986;DHT22;9118;48.122;11.546;2022-10-16T07:19:53;13.50;99.90
17986;DHT22;9118;48.122;11.546;2022-10-16T07:22:21;13.60;99.90
17986;DHT22;9118;48.122;11.546;2022-10-16T07:24:48;13.70;99.90
17986;DHT22;9118;48.122;11.546;2022-10-16T07:27:15;13.80;99.90
17986;DHT22;9118;48.122;11.546;2022-10-16T07:29:42;13.70;99.90
17986;DHT22;9118;48.122;11.546;2022-10-16T07:32:09;13.80;99.90
17986;DHT22;9118;48.122;11.546;2022-10-16T07:34:36;13.80;99.90
17986;DHT22;9118;48.122;11.546;2022-10-16T07:37:04;13.90;99.90
17986;DHT22;9118;48.122;11.546;2022-10-16T07:39:31;13.90;99.90
17986;DHT22;9118;48.122;11.546;2022-10-16T07:41:59;14.00;99.90
17986;DHT22;9118;48.122;11.546;2022-10-16T07:44:26;14.00;99.90
17986;DHT22;9118;48.122;11.546;2022-10-16T07:46:52;14.10;99.90
17986;DHT22;9118;48.122;11.546;2022-10-16T07:49:19;14.20;99.90
17986;DHT22;9118;48.122;11.546;2022-10-16T07:51:46;14.30;99.90
17986;DHT22;9118;48.122;11.546;2022-10-16T07:54:14;14.40;99.90
17986;DHT22;9118;48.122;11.546;2022-10-16T07:56:41;14.60;99.90
17986;DHT22;9118;48.122;11.546;2022-10-16T07:59:08;14.60;99.90
17986;DHT22;9118;48.122;11.546;2022-10-16T08:01:35;14.60;99.90
17986;DHT22;9118;48.122;11.546;2022-10-16T08:04:02;14.80;99.90
17986;DHT22;9118;48.122;11.546;2022-10-16T08:06:35;15.00;99.90
17986;DHT22;9118;48.122;11.546;2022-10-16T08:09:03;15.00;99.90
17986;DHT22;9118;48.122;11.546;2022-10-16T08:11:32;15.10;99.90
17986;DHT22;9118;48.122;11.546;2022-10-16T08:13:59;15.20;99.90
17986;DHT22;9118;48.122;11.546;2022-10-16T08:16:26;15.30;99.90
17986;DHT22;9118;48.122;11.546;2022-10-16T08:18:53;15.40;99.90
17986;DHT22;9118;48.122;11.546;2022-10-16T08:21:22;15.50;99.90
17986;DHT22;9118;48.122;11.546;2022-10-16T08:23:49;15.60;99.90
17986;DHT22;9118;48.122;11.546;2022-10-16T08:26:17;15.70;99.90
17986;DHT22;9118;48.122;11.546;2022-10-16T08:28:46;15.60;99.90
17986;DHT22;9118;48.122;11.546;2022-10-16T08:31:16;15.80;99.90
17986;DHT22;9118;48.122;11.546;2022-10-16T08:33:44;15.90;99.90
17986;DHT22;9118;48.122;11.546;2022-10-16T08:36:13;16.30;99.90
17986;DHT22;9118;48.122;11.546;2022-10-16T08:38:40;16.10;99.90
17986;DHT22;9118;48.122;11.546;2022-10-16T08:41:53;16.20;99.90
17986;DHT22;9118;48.122;11.546;2022-10-16T08:44:45;16.30;99.90
17986;DHT22;9118;48.122;11.546;2022-10-16T08:47:18;16.40;99.90
17986;DHT22;9118;48.122;11.546;2022-10-16T08:49:55;16.50;99.90
17986;DHT22;9118;48.122;11.546;2022-10-16T08:52:28;16.70;99.90
17986;DHT22;9118;48.122;11.546;2022-10-16T08:54:56;16.70;99.90
17986;DHT22;9118;48.122;11.546;2022-10-16T08:57:25;17.00;99.90
17986;DHT22;9118;48.122;11.546;2022-10-16T08:59:55;16.80;99.90
17986;DHT22;9118;48.122;11.546;2022-10-16T09:02:31;17.10;99.90
17986;DHT22;9118;48.122;11.546;2022-10-16T09:05:19;17.20;99.90
17986;DHT22;9118;48.122;11.546;2022-10-16T09:07:55;17.20;99.90
17986;DHT22;9118;48.122;11.546;2022-10-16T09:10:33;17.30;99.90
17986;DHT22;9118;48.122;11.546;2022-10-16T09:13:13;17.50;99.90
17986;DHT22;9118;48.122;11.546;2022-10-16T09:15:52;17.30;99.90
17986;DHT22;9118;48.122;11.546;2022-10-16T09:18:26;17.50;99.90
17986;DHT22;9118;48.122;11.546;2022-10-16T09:21:01;17.50;99.90
17986;DHT22;9118;48.122;11.546;2022-10-16T09:23:35;17.60;99.90
17986;DHT22;9118;48.122;11.546;2022-10-16T09:26:05;17.70;99.90
17986;DHT22;9118;48.122;11.546;2022-10-16T09:28:32;17.70;99.90
17986;DHT22;9118;48.122;11.546;2022-10-16T09:31:00;17.80;99.90
17986;DHT22;9118;48.122;11.546;2022-10-16T09:33:30;17.80;99.90
17986;DHT22;9118;48.122;11.546;2022-10-16T09:35:59;17.90;99.90
17986;DHT22;9118;48.122;11.546;2022-10-16T09:38:30;18.20;99.90
17986;DHT22;9118;48.122;11.546;2022-10-16T09:40:58;18.20;99.90
17986;DHT22;9118;48.122;11.546;2022-10-16T09:43:30;18.40;99.90
17986;DHT22;9118;48.122;11.546;2022-10-16T09:46:03;18.40;99.90
17986;DHT22;9118;48.122;11.546;2022-10-16T09:48:35;18.50;99.90
17986;DHT22;9118;48.122;11.546;2022-10-16T09:51:05;18.50;99.90
17986;DHT22;9118;48.122;11.546;2022-10-16T09:53:40;19.00;99.90
17986;DHT22;9118;48.122;11.546;2022-10-16T09:56:10;18.80;99.90
17986;DHT22;9118;48.122;11.546;2022-10-16T09:58:42;18.90;99.90
17986;DHT22;9118;48.122;11.546;2022-10-16T10:01:13;19.00;99.90
17986;DHT22;9118;48.122;11.546;2022-10-16T10:03:43;19.10;99.90
17986;DHT22;9118;48.122;11.546;2022-10-16T10:06:21;19.20;99.90
17986;DHT22;9118;48.122;11.546;2022-10-16T10:08:56;19.00;99.90
17986;DHT22;9118;48.122;11.546;2022-10-16T10:11:47;19.20;99.90
17986;DHT22;9118;48.122;11.546;2022-10-16T10:14:27;19.20;99.90
17986;DHT22;9118;48.122;11.546;2022-10-16T10:17:10;19.30;99.90
17986;DHT22;9118;48.122;11.546;2022-10-16T10:19:39;19.40;99.90
17986;DHT22;9118;48.122;11.546;2022-10-16T10:22:17;19.50;99.90
17986;DHT22;9118;48.122;11.546;2022-10-16T10:24:55;19.50;99.90
17986;DHT22;9118;48.122;11.546;2022-10-16T10:27:26;19.50;99.90
17986;DHT22;9118;48.122;11.546;2022-10-16T10:29:59;19.60;99.90
17986;DHT22;9118;48.122;11.546;2022-10-16T10:32:35;19.50;99.90
17986;DHT22;9118;48.122;11.546;2022-10-16T10:35:15;19.70;99.90
17986;DHT22;9118;48.122;11.546;2022-10-16T10:38:03;19.10;99.90
17986;DHT22;9118;48.122;11.546;2022-10-16T10:40:45;19.80;99.90
17986;DHT22;9118;48.122;11.546;2022-10-16T10:43:29;19.90;99.90
17986;DHT22;9118;48.122;11.546;2022-10-16T10:46:03;20.00;99.90
17986;DHT22;9118;48.122;11.546;2022-10-16T10:48:56;20.00;99.90
17986;DHT22;9118;48.122;11.546;2022-10-16T10:51:31;20.00;99.90
17986;DHT22;9118;48.122;11.546;2022-10-16T10:54:13;20.30;99.90
17986;DHT22;9118;48.122;11.546;2022-10-16T10:56:45;20.20;99.90
17986;DHT22;9118;48.122;11.546;2022-10-16T10:59:49;20.60;99.90
17986;DHT22;9118;48.122;11.546;2022-10-16T11:02:25;20.60;99.90
17986;DHT22;9118;48.122;11.546;2022-10-16T11:05:16;20.70;99.90
17986;DHT22;9118;48.122;11.546;2022-10-16T11:07:48;20.70;99.90
17986;DHT22;9118;48.122;11.546;2022-10-16T11:10:18;20.70;99.90
17986;DHT22;9118;48.122;11.546;2022-10-16T11:12:49;20.70;99.90
17986;DHT22;9118;48.122;11.546;2022-10-16T11:15:21;20.80;99.90
17986;DHT22;9118;48.122;11.546;2022-10-16T11:17:53;20.90;99.90
17986;DHT22;9118;48.122;11.546;2022-10-16T11:20:25;20.50;99.90
17986;DHT22;9118;48.122;11.546;2022-10-16T11:22:55;21.30;99.90
17986;DHT22;9118;48.122;11.546;2022-10-16T11:25:26;21.20;99.90
17986;DHT22;9118;48.122;11.546;2022-10-16T11:27:58;21.10;99.90
17986;DHT22;9118;48.122;11.546;2022-10-16T11:30:29;21.40;99.90
17986;DHT22;9118;48.122;11.546;2022-10-16T11:33:10;21.60;99.90
17986;DHT22;9118;48.122;11.546;2022-10-16T11:35:46;21.60;99.90
17986;DHT22;9118;48.122;11.546;2022-10-16T11:38:18;21.70;99.90
17986;DHT22;9118;48.122;11.546;2022-10-16T11:40:51;21.70;99.90
17986;DHT22;9118;48.122;11.546;2022-10-16T11:43:24;21.60;99.90
17986;DHT22;9118;48.122;11.546;2022-10-16T11:45:54;21.70;99.90
17986;DHT22;9118;48.122;11.546;2022-10-16T11:48:27;21.80;99.90
17986;DHT22;9118;48.122;11.546;2022-10-16T11:51:06;21.80;99.90
17986;DHT22;9118;48.122;11.546;2022-10-16T11:53:44;21.60;99.90
17986;DHT22;9118;48.122;11.546;2022-10-16T11:56:13;21.80;99.90
17986;DHT22;9118;48.122;11.546;2022-10-16T11:58:50;22.00;99.90
17986;DHT22;9118;48.122;11.546;2022-10-16T12:01:22;22.00;99.90
17986;DHT22;9118;48.122;11.546;2022-10-16T12:04:05;22.80;99.90
17986;DHT22;9118;48.122;11.546;2022-10-16T12:06:37;22.20;99.90
17986;DHT22;9118;48.122;11.546;2022-10-16T12:09:13;22.20;99.90
17986;DHT22;9118;48.122;11.546;2022-10-16T12:11:41;22.20;99.90
17986;DHT22;9118;48.122;11.546;2022-10-16T12:14:33;22.20;99.90
17986;DHT22;9118;48.122;11.546;2022-10-16T12:17:03;22.20;99.90
17986;DHT22;9118;48.122;11.546;2022-10-16T12:19:31;22.20;99.90
17986;DHT22;9118;48.122;11.546;2022-10-16T12:22:02;22.20;99.90
17986;DHT22;9118;48.122;11.546;2022-10-16T12:24:34;22.60;99.90
17986;DHT22;9118;48.122;11.546;2022-10-16T12:27:02;22.50;99.90
17986;DHT22;9118;48.122;11.546;2022-10-16T12:29:34;22.80;99.90
17986;DHT22;9118;48.122;11.546;2022-10-16T12:32:03;22.60;99.90
17986;DHT22;9118;48.122;11.546;2022-10-16T12:34:37;22.90;99.90
17986;DHT22;9118;48.122;11.546;2022-10-16T12:37:12;22.60;99.90
17986;DHT22;9118;48.122;11.546;2022-10-16T12:39:40;22.40;99.90
17986;DHT22;9118;48.122;11.546;2022-10-16T12:42:22;22.40;99.90
17986;DHT22;9118;48.122;11.546;2022-10-16T12:44:50;22.40;99.90
17986;DHT22;9118;48.122;11.546;2022-10-16T12:47:21;22.30;99.90
17986;DHT22;9118;48.122;11.546;2022-10-16T12:49:51;22.30;99.90
17986;DHT22;9118;48.122;11.546;2022-10-16T12:52:28;22.30;99.90
17986;DHT22;9118;48.122;11.546;2022-10-16T12:54:57;22.30;99.90
17986;DHT22;9118;48.122;11.546;2022-10-16T12:57:38;22.30;99.90
17986;DHT22;9118;48.122;11.546;2022-10-16T13:00:14;22.20;99.90
17986;DHT22;9118;48.122;11.546;2022-10-16T13:03:05;22.20;99.90
17986;DHT22;9118;48.122;11.546;2022-10-16T13:05:54;22.10;99.90
17986;DHT22;9118;48.122;11.546;2022-10-16T13:08:44;22.00;99.90
17986;DHT22;9118;48.122;11.546;2022-10-16T13:11:23;22.40;99.90
17986;DHT22;9118;48.122;11.546;2022-10-16T13:17:11;22.30;99.90
17986;DHT22;9118;48.122;11.546;2022-10-16T13:19:45;22.10;99.90
17986;DHT22;9118;48.122;11.546;2022-10-16T13:22:23;21.30;99.90
17986;DHT22;9118;48.122;11.546;2022-10-16T13:25:13;22.10;99.90
17986;DHT22;9118;48.122;11.546;2022-10-16T13:27:50;22.10;99.90
17986;DHT22;9118;48.122;11.546;2022-10-16T13:30:21;22.00;99.90
17986;DHT22;9118;48.122;11.546;2022-10-16T13:32:57;22.10;99.90
17986;DHT22;9118;48.122;11.546;2022-10-16T13:35:26;22.10;99.90
17986;DHT22;9118;48.122;11.546;2022-10-16T13:38:04;22.10;99.90
17986;DHT22;9118;48.122;11.546;2022-10-16T13:40:33;22.00;99.90
17986;DHT22;9118;48.122;11.546;2022-10-16T13:43:00;22.10;99.90
17986;DHT22;9118;48.122;11.546;2022-10-16T13:45:27;22.20;99.90
17986;DHT22;9118;48.122;11.546;2022-10-16T13:48:02;22.10;99.90
17986;DHT22;9118;48.122;11.546;2022-10-16T13:50:30;22.10;99.90
17986;DHT22;9118;48.122;11.546;2022-10-16T13:53:13;22.10;99.90
17986;DHT22;9118;48.122;11.546;2022-10-16T13:55:42;22.10;99.90
17986;DHT22;9118;48.122;11.546;2022-10-16T13:58:13;21.70;99.90
17986;DHT22;9118;48.122;11.546;2022-10-16T14:00:41;21.50;99.90
17986;DHT22;9118;48.122;11.546;2022-10-16T14:03:20;22.20;99.90
17986;DHT22;9118;48.122;11.546;2022-10-16T14:05:49;22.10;99.90
17986;DHT22;9118;48.122;11.546;2022-10-16T14:08:17;22.20;99.90
17986;DHT22;9118;48.122;11.546;2022-10-16T14:10:48;22.20;99.90
17986;DHT22;9118;48.122;11.546;2022-10-16T14:13:18;22.20;99.90
17986;DHT22;9118;48.122;11.546;2022-10-16T14:15:47;22.20;99.90
17986;DHT22;9118;48.122;11.546;2022-10-16T14:18:19;22.50;99.90
17986;DHT22;9118;48.122;11.546;2022-10-16T14:20:48;22.30;99.90
17986;DHT22;9118;48.122;11.546;2022-10-16T14:23:21;22.40;99.90
17986;DHT22;9118;48.122;11.546;2022-10-16T14:25:50;22.30;99.90
17986;DHT22;9118;48.122;11.546;2022-10-16T14:28:18;22.50;99.90
17986;DHT22;9118;48.122;11.546;2022-10-16T14:30:50;22.50;99.90
17986;DHT22;9118;48.122;11.546;2022-10-16T14:33:23;22.40;99.90
17986;DHT22;9118;48.122;11.546;2022-10-16T14:36:03;22.40;99.90
17986;DHT22;9118;48.122;11.546;2022-10-16T14:38:31;22.40;99.90
17986;DHT22;9118;48.122;11.546;2022-10-16T14:41:00;22.30;99.90
17986;DHT22;9118;48.122;11.546;2022-10-16T14:43:32;22.30;99.90
17986;DHT22;9118;48.122;11.546;2022-10-16T14:46:01;22.40;99.90
17986;DHT22;9118;48.122;11.546;2022-10-16T14:48:29;22.40;99.90
17986;DHT22;9118;48.122;11.546;2022-10-16T14:50:56;22.40;99.90
17986;DHT22;9118;48.122;11.546;2022-10-16T14:53:23;22.70;99.90
17986;DHT22;9118;48.122;11.546;2022-10-16T14:55:50;22.50;99.90
17986;DHT22;9118;48.122;11.546;2022-10-16T14:58:21;22.60;99.90
17986;DHT22;9118;48.122;11.546;2022-10-16T15:00:49;22.60;99.90
17986;DHT22;9118;48.122;11.546;2022-10-16T15:03:16;22.50;99.90
17986;DHT22;9118;48.122;11.546;2022-10-16T15:05:44;22.40;99.90
17986;DHT22;9118;48.122;11.546;2022-10-16T15:08:14;22.30;99.90
17986;DHT22;9118;48.122;11.546;2022-10-16T15:10:43;22.10;99.90
17986;DHT22;9118;48.122;11.546;2022-10-16T15:13:12;22.40;99.90
17986;DHT22;9118;48.122;11.546;2022-10-16T15:15:43;21.90;99.90
17986;DHT22;9118;48.122;11.546;2022-10-16T15:18:11;21.70;99.90
17986;DHT22;9118;48.122;11.546;2022-10-16T15:20:40;21.80;99.90
17986;DHT22;9118;48.122;11.546;2022-10-16T15:23:13;21.70;99.90
17986;DHT22;9118;48.122;11.546;2022-10-16T15:25:42;21.60;99.90
17986;DHT22;9118;48.122;11.546;2022-10-16T15:28:10;21.50;99.90
17986;DHT22;9118;48.122;11.546;2022-10-16T15:30:38;21.40;99.90
17986;DHT22;9118;48.122;11.546;2022-10-16T15:33:12;21.30;99.90
17986;DHT22;9118;48.122;11.546;2022-10-16T15:35:40;21.40;99.90
17986;DHT22;9118;48.122;11.546;2022-10-16T15:38:11;21.40;99.90
17986;DHT22;9118;48.122;11.546;2022-10-16T15:40:39;21.20;99.90
17986;DHT22;9118;48.122;11.546;2022-10-16T15:43:07;21.50;99.90
17986;DHT22;9118;48.122;11.546;2022-10-16T15:45:36;21.30;99.90
17986;DHT22;9118;48.122;11.546;2022-10-16T15:50:50;21.70;99.90
17986;DHT22;9118;48.122;11.546;2022-10-16T15:53:20;21.20;99.90
17986;DHT22;9118;48.122;11.546;2022-10-16T15:55:48;21.10;99.90
17986;DHT22;9118;48.122;11.546;2022-10-16T15:58:29;21.00;99.90